Time;durP1;ratioP1;P1;durP2;ratioP2;P2;SDS_P1;SDS_P2;PMS_P1;PMS_P2;Temp;Humidity;BMP_temperature;BMP_pressure;BME280_temperature;BME280_humidity;BME280_pressure;Samples;Min_cycle;Max_cycle;Signal;HPM_P1;HPM_P2
2021/08/20 00:01:49;;;;;;;8.15;3.08;;;19.10;97.00;;;;;;4972475;28;20046;-54
2021/08/20 00:04:15;;;;;;;7.90;3.83;;;19.10;97.60;;;;;;4988349;28;20046;-51
2021/08/20 00:06:41;;;;;;;5.75;3.33;;;19.10;97.60;;;;;;5025287;28;20033;-50
2021/08/20 00:09:09;;;;;;;7.40;3.25;;;19.10;97.60;;;;;;5015324;28;20041;-50
2021/08/20 00:11:36;;;;;;;7.78;2.95;;;;;;;;;;5033047;28;20034;-52
2021/08/20 00:14:02;;;;;;;8.80;3.10;;;;;;;;;;5033259;28;20037;-54
2021/08/20 00:16:28;;;;;;;7.32;3.00;;;;;;;;;;5033104;28;20060;-50
2021/08/20 00:18:54;;;;;;;4.80;2.58;;;19.20;97.30;;;;;;5014540;28;20029;-52
2021/08/20 00:21:20;;;;;;;5.75;2.60;;;;;;;;;;5014871;28;20060;-52
2021/08/20 00:23:46;;;;;;;5.03;2.80;;;;;;;;;;5032872;28;20041;-51
2021/08/20 00:26:12;;;;;;;5.75;3.33;;;;;;;;;;5033070;28;20033;-51
2021/08/20 00:28:38;;;;;;;6.75;3.22;;;;;;;;;;5032575;28;20025;-51
2021/08/20 00:31:05;;;;;;;6.75;3.58;;;;;;;;;;5014671;28;20120;-52
2021/08/20 00:33:33;;;;;;;7.82;2.70;;;;;;;;;;5032934;28;20026;-52
2021/08/20 00:35:59;;;;;;;3.90;2.90;;;;;;;;;;5033020;28;20040;-54
2021/08/20 00:38:25;;;;;;;6.65;4.45;;;;;;;;;;5032897;28;20029;-48
2021/08/20 00:40:52;;;;;;;8.50;2.75;;;;;;;;;;5033031;28;20485;-51
2021/08/20 00:43:19;;;;;;;6.57;3.50;;;;;;;;;;5032838;28;20122;-50
2021/08/20 00:45:55;;;;;;;5.80;2.78;;;;;;;;;;5032825;28;20022;-51
2021/08/20 00:48:21;;;;;;;11.05;2.90;;;;;;;;;;5032922;28;20492;-49
2021/08/20 00:50:49;;;;;;;4.07;2.78;;;19.10;98.00;;;;;;5035688;28;20104;-53
2021/08/20 00:53:15;;;;;;;5.50;2.70;;;18.60;81.10;;;;;;5036277;28;20092;-50
2021/08/20 00:55:41;;;;;;;6.93;2.75;;;18.30;81.90;;;;;;5036292;28;20029;-51
2021/08/20 00:58:06;;;;;;;4.00;2.40;;;18.00;82.70;;;;;;5018096;28;20120;-53
2021/08/20 01:00:32;;;;;;;5.13;2.65;;;17.90;83.80;;;;;;4985334;28;20036;-52
2021/08/20 01:02:58;;;;;;;6.47;3.03;;;17.80;83.80;;;;;;5017873;28;20435;-54
2021/08/20 01:05:24;;;;;;;7.93;2.55;;;;;;;;;;5036292;28;20026;-54
2021/08/20 01:07:50;;;;;;;7.70;2.42;;;17.30;99.90;;;;;;5036323;28;20045;-52
2021/08/20 01:10:16;;;;;;;7.82;3.42;;;17.60;91.80;;;;;;5036134;28;20086;-54
2021/08/20 01:12:42;;;;;;;3.90;2.60;;;17.80;91.40;;;;;;5036480;28;20369;-54
2021/08/20 01:15:08;;;;;;;5.28;2.33;;;17.70;91.20;;;;;;5036058;28;20025;-51
2021/08/20 01:17:34;;;;;;;3.15;2.28;;;17.80;87.70;;;;;;5017783;28;20033;-50
2021/08/20 01:20:04;;;;;;;3.92;2.30;;;18.00;85.40;;;;;;5035931;28;20152;-54
2021/08/20 01:22:30;;;;;;;6.13;2.85;;;18.00;85.50;;;;;;5035933;28;20045;-53
2021/08/20 01:25:02;;;;;;;4.45;2.85;;;17.90;85.50;;;;;;4984852;28;20491;-54
2021/08/20 01:27:28;;;;;;;;;;;17.80;89.00;;;;;;5036249;28;20421;-49
2021/08/20 01:29:54;;;;;;;5.15;3.00;;;17.50;92.40;;;;;;5035838;28;19944;-53
2021/08/20 01:32:21;;;;;;;4.82;3.00;;;17.50;91.20;;;;;;5017642;28;20421;-53
2021/08/20 01:34:46;;;;;;;3.65;2.42;;;17.30;92.60;;;;;;5035793;28;20478;-50
2021/08/20 01:37:12;;;;;;;5.18;2.97;;;;;;;;;;5035744;28;20021;-53
2021/08/20 01:39:38;;;;;;;3.33;2.40;;;17.30;93.30;;;;;;5035229;28;20036;-50
2021/08/20 01:42:04;;;;;;;3.58;2.25;;;17.30;86.60;;;;;;5017426;28;20045;-53
2021/08/20 01:44:30;;;;;;;4.15;2.70;;;17.40;86.50;;;;;;5035524;28;20052;-50
2021/08/20 01:46:55;;;;;;;5.00;2.78;;;17.30;86.40;;;;;;5035448;28;20490;-49
2021/08/20 01:49:21;;;;;;;5.07;2.35;;;17.40;85.70;;;;;;5035404;28;20072;-52
2021/08/20 01:51:47;;;;;;;3.35;2.40;;;17.40;85.70;;;;;;5035582;28;20048;-51
2021/08/20 01:54:13;;;;;;;5.40;2.70;;;17.30;85.90;;;;;;5035340;28;20385;-48
2021/08/20 01:56:38;;;;;;;3.92;2.78;;;17.00;86.70;;;;;;5017341;28;20088;-50
2021/08/20 01:59:04;;;;;;;5.90;2.85;;;16.80;88.30;;;;;;5035413;28;20033;-54
2021/08/20 02:01:33;;;;;;;4.30;2.70;;;16.60;88.80;;;;;;5034929;28;20542;-53
2021/08/20 02:03:59;;;;;;;6.88;3.00;;;16.40;90.10;;;;;;5035345;28;20025;-52
2021/08/20 02:06:25;;;;;;;5.32;2.33;;;16.60;89.70;;;;;;5035033;28;20051;-53
2021/08/20 02:08:51;;;;;;;7.65;2.72;;;16.40;90.00;;;;;;5035155;28;20044;-50
2021/08/20 02:11:17;;;;;;;4.10;2.30;;;16.30;90.30;;;;;;5035248;28;20451;-52
2021/08/20 02:13:43;;;;;;;6.10;2.60;;;16.30;90.40;;;;;;5035008;28;20029;-49
2021/08/20 02:16:10;;;;;;;4.78;2.63;;;;;;;;;;5034815;28;20025;-53
2021/08/20 02:18:35;;;;;;;5.18;2.47;;;15.90;91.30;;;;;;5034810;28;20025;-51
2021/08/20 02:21:02;;;;;;;4.72;2.78;;;15.90;91.60;;;;;;5016474;28;20564;-52
2021/08/20 02:23:28;;;;;;;4.80;2.85;;;16.10;91.20;;;;;;4983798;28;20053;-50
2021/08/20 02:25:53;;;;;;;4.75;3.20;;;16.30;90.80;;;;;;5034607;28;20124;-53
2021/08/20 02:28:19;;;;;;;4.88;2.50;;;16.50;90.40;;;;;;5034646;28;20033;-54
2021/08/20 02:30:45;;;;;;;5.47;2.42;;;;;;;;;;5034927;28;20021;-52
2021/08/20 02:33:11;;;;;;;7.03;3.03;;;15.50;92.20;;;;;;5034571;28;20112;-52
2021/08/20 02:35:37;;;;;;;2.88;2.15;;;15.40;93.10;;;;;;5034473;28;20056;-50
2021/08/20 02:38:02;;;;;;;4.60;2.70;;;15.40;93.20;;;;;;5034939;28;20040;-50
2021/08/20 02:40:28;;;;;;;4.80;2.63;;;15.40;93.30;;;;;;4983405;28;20091;-52
2021/08/20 02:42:54;;;;;;;4.43;2.60;;;15.50;93.40;;;;;;5034315;28;20072;-52
2021/08/20 02:45:20;;;;;;;5.03;2.80;;;15.50;93.30;;;;;;4983552;28;20053;-52
2021/08/20 02:47:47;;;;;;;5.78;2.65;;;15.50;93.20;;;;;;5034528;28;20029;-52
2021/08/20 02:50:13;;;;;;;4.05;2.63;;;15.80;92.90;;;;;;5034067;28;20037;-51
2021/08/20 02:52:39;;;;;;;8.65;2.90;;;16.20;92.20;;;;;;5034125;28;20072;-48
2021/08/20 02:55:05;;;;;;;5.20;2.55;;;16.40;91.50;;;;;;4983548;28;20461;-49
2021/08/20 02:57:31;;;;;;;5.72;2.78;;;16.60;91.00;;;;;;5034710;28;20021;-48
2021/08/20 02:59:57;;;;;;;4.85;2.60;;;16.80;91.10;;;;;;5033919;28;20035;-53
2021/08/20 03:02:24;;;;;;;5.93;2.95;;;16.90;90.30;;;;;;5033972;28;20051;-49
2021/08/20 03:04:50;;;;;;;20.60;5.43;;;16.90;90.10;;;;;;5034091;28;20021;-51
2021/08/20 03:07:16;;;;;;;4.57;2.80;;;17.00;89.80;;;;;;5033806;28;20362;-49
2021/08/20 03:09:42;;;;;;;8.75;2.80;;;17.00;89.60;;;;;;5033914;28;20032;-51
2021/08/20 03:12:08;;;;;;;4.90;2.70;;;17.00;89.50;;;;;;5031759;28;20033;-50
2021/08/20 03:14:35;;;;;;;3.60;2.85;;;17.00;89.20;;;;;;5034223;28;20469;-49
2021/08/20 03:17:00;;;;;;;5.15;2.40;;;17.00;88.90;;;;;;5034024;28;20404;-50
2021/08/20 03:19:26;;;;;;;4.80;2.70;;;17.00;88.80;;;;;;5033888;28;20052;-53
2021/08/20 03:21:52;;;;;;;8.63;3.55;;;17.10;88.70;;;;;;5033643;28;20117;-49
2021/08/20 03:24:18;;;;;;;3.22;2.30;;;17.10;88.50;;;;;;5033601;28;20120;-53
2021/08/20 03:26:44;;;;;;;4.93;2.47;;;17.10;88.40;;;;;;5034382;28;20030;-50
2021/08/20 03:29:10;;;;;;;5.38;2.45;;;17.10;88.30;;;;;;5033794;28;20030;-50
2021/08/20 03:31:36;;;;;;;9.90;3.08;;;17.20;88.10;;;;;;5033422;28;20437;-54
2021/08/20 03:34:01;;;;;;;4.25;2.75;;;17.20;88.00;;;;;;5033523;28;20121;-50
2021/08/20 03:36:27;;;;;;;3.92;2.80;;;17.20;88.20;;;;;;5033430;28;20026;-54
2021/08/20 03:38:53;;;;;;;4.25;2.65;;;17.20;88.40;;;;;;5015322;28;20172;-56
2021/08/20 03:41:21;;;;;;;7.85;2.85;;;17.20;88.90;;;;;;5033430;28;20064;-51
2021/08/20 03:43:47;;;;;;;15.55;3.88;;;17.20;89.10;;;;;;5033322;28;20041;-50
2021/08/20 03:46:13;;;;;;;17.83;3.72;;;17.30;88.50;;;;;;5033594;28;20388;-52
2021/08/20 03:48:39;;;;;;;6.45;3.08;;;17.40;88.10;;;;;;5033709;28;20351;-49
2021/08/20 03:51:05;;;;;;;12.05;4.40;;;17.50;87.80;;;;;;5015068;28;20041;-50
2021/08/20 03:53:31;;;;;;;10.20;3.33;;;17.50;87.60;;;;;;5033133;28;20512;-51
2021/08/20 03:55:57;;;;;;;8.82;3.17;;;17.60;87.40;;;;;;5033220;28;20030;-49
2021/08/20 03:58:23;;;;;;;7.35;2.83;;;17.50;87.50;;;;;;5033138;28;20112;-49
2021/08/20 04:00:52;;;;;;;7.28;2.75;;;17.30;86.70;;;;;;5029754;28;20413;-49
2021/08/20 04:03:22;;;;;;;6.22;2.58;;;16.80;88.50;;;;;;5024273;28;20143;-51
2021/08/20 04:05:48;;;;;;;4.22;2.60;;;16.50;90.00;;;;;;5033259;28;20428;-52
2021/08/20 04:08:15;;;;;;;5.05;3.22;;;16.60;90.20;;;;;;5033128;28;20029;-50
2021/08/20 04:10:45;;;;;;;4.25;3.05;;;16.60;90.20;;;;;;5012579;28;20041;-51
2021/08/20 04:13:12;;;;;;;5.90;3.10;;;16.70;90.00;;;;;;5028013;28;20069;-52
2021/08/20 04:15:38;;;;;;;3.45;2.65;;;16.40;90.30;;;;;;5013326;28;20061;-48
2021/08/20 04:18:04;;;;;;;4.05;2.60;;;16.10;91.00;;;;;;5013195;28;20371;-49
2021/08/20 04:20:31;;;;;;;9.75;3.17;;;16.20;91.20;;;;;;5013400;28;20038;-50
2021/08/20 04:22:59;;;;;;;6.68;3.10;;;16.40;90.90;;;;;;5013281;28;20029;-51
2021/08/20 04:25:25;;;;;;;6.28;3.05;;;16.10;91.30;;;;;;5015708;28;20030;-52
2021/08/20 04:27:51;;;;;;;5.25;3.00;;;16.10;91.40;;;;;;5015644;28;20596;-51
2021/08/20 04:30:21;;;;;;;4.00;2.72;;;16.30;91.10;;;;;;5016947;28;20064;-51
2021/08/20 04:32:47;;;;;;;4.40;2.65;;;16.40;90.90;;;;;;5025981;28;20029;-52
2021/08/20 04:35:13;;;;;;;6.47;3.08;;;16.30;91.40;;;;;;5028456;28;20478;-52
2021/08/20 04:37:39;;;;;;;4.88;2.97;;;16.10;91.50;;;;;;5004248;28;20038;-50
2021/08/20 04:40:07;;;;;;;4.00;2.83;;;15.90;92.30;;;;;;5003452;28;20065;-53
2021/08/20 04:42:38;;;;;;;7.07;3.50;;;16.20;92.10;;;;;;4969638;28;20563;-52
2021/08/20 04:45:05;;;;;;;5.20;3.27;;;16.40;91.70;;;;;;5003030;28;20359;-51
2021/08/20 04:47:31;;;;;;;5.97;3.05;;;16.70;91.30;;;;;;4972129;28;20038;-50
2021/08/20 04:49:56;;;;;;;4.68;3.72;;;17.10;93.10;;;;;;5004609;28;20029;-50
2021/08/20 04:52:22;;;;;;;5.25;3.65;;;17.20;90.70;;;;;;4978323;28;20132;-50
2021/08/20 04:54:48;;;;;;;18.10;4.43;;;17.40;90.30;;;;;;4994823;28;20401;-51
2021/08/20 04:57:14;;;;;;;27.65;10.60;;;17.60;90.30;;;;;;4962560;28;20118;-50
2021/08/20 04:59:40;;;;;;;10.90;5.13;;;17.80;90.10;;;;;;4994745;28;20565;-50
2021/08/20 05:02:07;;;;;;;8.82;4.35;;;17.90;89.50;;;;;;4994567;28;20073;-49
2021/08/20 05:04:35;;;;;;;6.40;3.40;;;18.00;89.20;;;;;;4994726;28;20363;-49
2021/08/20 05:07:02;;;;;;;10.50;4.07;;;18.20;89.50;;;;;;4994750;28;20022;-49
2021/08/20 05:09:28;;;;;;;14.02;4.63;;;18.30;89.50;;;;;;5013828;28;20053;-48
2021/08/20 05:11:54;;;;;;;8.30;4.85;;;18.40;89.20;;;;;;5003056;28;20034;-47
2021/08/20 05:14:20;;;;;;;29.35;8.00;;;18.50;89.40;;;;;;5016378;28;20044;-52
2021/08/20 05:16:48;;;;;;;7.05;3.83;;;18.60;89.40;;;;;;5016144;28;20388;-51
2021/08/20 05:19:15;;;;;;;8.25;3.50;;;18.70;90.00;;;;;;5016076;28;20037;-51
2021/08/20 05:21:41;;;;;;;10.15;3.60;;;18.80;89.70;;;;;;5015906;28;20030;-50
2021/08/20 05:24:07;;;;;;;8.45;4.28;;;18.90;89.80;;;;;;5016161;28;20072;-49
2021/08/20 05:26:32;;;;;;;10.65;4.82;;;18.90;89.70;;;;;;5031679;28;20485;-51
2021/08/20 05:28:58;;;;;;;15.68;6.45;;;19.00;89.60;;;;;;5035523;28;20091;-49
2021/08/20 05:31:24;;;;;;;19.33;7.38;;;19.00;88.90;;;;;;5000783;28;20094;-48
2021/08/20 05:33:50;;;;;;;17.58;7.90;;;19.20;88.60;;;;;;5035626;28;20033;-50
2021/08/20 05:36:15;;;;;;;20.38;8.45;;;19.00;88.60;;;;;;5035264;28;20064;-50
2021/08/20 05:38:41;;;;;;;15.60;8.18;;;18.80;88.40;;;;;;5035572;28;20061;-48
2021/08/20 05:41:07;;;;;;;18.70;8.45;;;19.00;89.30;;;;;;5035746;28;20030;-50
2021/08/20 05:43:33;;;;;;;23.08;10.48;;;19.10;88.80;;;;;;4980595;28;20506;-51
2021/08/20 05:45:59;;;;;;;17.63;8.50;;;19.20;88.20;;;;;;4997594;28;20080;-50
2021/08/20 05:48:25;;;;;;;20.42;9.30;;;19.40;87.80;;;;;;5015854;28;20083;-52
2021/08/20 05:50:51;;;;;;;16.10;7.18;;;19.60;86.90;;;;;;5014113;28;20113;-47
2021/08/20 05:53:17;;;;;;;14.55;7.25;;;19.70;86.30;;;;;;5015459;28;20061;-50
2021/08/20 05:55:42;;;;;;;17.20;7.15;;;19.70;87.50;;;;;;5016085;28;20117;-50
2021/08/20 05:58:09;;;;;;;15.95;6.53;;;;;;;;;;5013551;28;20038;-48
2021/08/20 06:00:35;;;;;;;14.70;5.97;;;19.90;85.60;;;;;;5013810;28;20038;-52
2021/08/20 06:03:00;;;;;;;11.32;6.22;;;20.00;86.20;;;;;;5015420;28;20580;-47
2021/08/20 06:05:26;;;;;;;15.48;6.30;;;20.10;85.70;;;;;;5015625;28;20458;-50
2021/08/20 06:07:52;;;;;;;13.82;5.85;;;20.20;84.50;;;;;;5015324;28;20421;-47
2021/08/20 06:10:19;;;;;;;11.77;6.60;;;20.20;85.30;;;;;;5015370;28;20034;-47
2021/08/20 06:12:45;;;;;;;14.65;6.00;;;20.40;84.80;;;;;;5015159;28;20026;-48
2021/08/20 06:15:12;;;;;;;14.95;6.35;;;20.30;84.40;;;;;;5015092;28;20112;-49
2021/08/20 06:17:38;;;;;;;14.10;6.03;;;20.40;83.70;;;;;;5015076;28;20585;-48
2021/08/20 06:20:05;;;;;;;10.95;5.88;;;20.50;83.80;;;;;;5013393;28;20098;-51
2021/08/20 06:22:31;;;;;;;11.20;6.22;;;20.70;83.60;;;;;;5013266;28;20061;-49
2021/08/20 06:24:56;;;;;;;14.18;5.72;;;20.60;83.90;;;;;;5015020;28;20026;-51
2021/08/20 06:27:22;;;;;;;9.85;5.70;;;20.80;84.60;;;;;;5014768;28;20492;-48
2021/08/20 06:29:48;;;;;;;13.43;5.80;;;20.80;82.30;;;;;;5015337;28;20033;-47
2021/08/20 06:32:14;;;;;;;12.85;5.82;;;21.00;82.80;;;;;;5013167;28;20465;-51
2021/08/20 06:34:40;;;;;;;12.48;5.70;;;20.90;82.30;;;;;;4996917;28;20056;-50
2021/08/20 06:37:06;;;;;;;10.57;5.32;;;21.20;86.20;;;;;;5014807;28;20026;-47
2021/08/20 06:39:32;;;;;;;13.70;5.15;;;;;;;;;;5012981;28;20038;-51
2021/08/20 06:41:59;;;;;;;13.48;5.60;;;21.50;81.50;;;;;;5014482;28;20061;-51
2021/08/20 06:44:26;;;;;;;9.27;4.93;;;21.60;84.30;;;;;;5014621;28;20038;-46
2021/08/20 06:46:51;;;;;;;9.77;5.10;;;21.70;80.10;;;;;;5013819;28;20080;-52
2021/08/20 06:49:17;;;;;;;10.55;4.88;;;21.70;80.10;;;;;;5014679;28;20029;-49
2021/08/20 06:51:43;;;;;;;12.32;4.95;;;22.00;80.00;;;;;;4996297;28;20046;-48
2021/08/20 06:54:09;;;;;;;10.90;4.82;;;22.00;79.30;;;;;;5010589;28;20064;-52
2021/08/20 06:56:35;;;;;;;14.32;5.22;;;22.00;78.00;;;;;;4963139;28;20126;-47
2021/08/20 06:59:00;;;;;;;12.27;4.30;;;22.10;77.80;;;;;;4979575;28;20189;-48
2021/08/20 07:01:27;;;;;;;6.07;3.05;;;22.20;78.60;;;;;;5012296;28;20104;-48
2021/08/20 07:03:53;;;;;;;9.82;4.45;;;22.30;75.40;;;;;;4994480;28;20050;-50
2021/08/20 07:18:19;;;;;;;10.07;4.88;;;22.40;75.60;;;;;;5058408;28;20882;-54
2021/08/20 07:20:45;;;;;;;12.20;4.38;;;23.40;73.30;;;;;;5080909;28;20098;-52
2021/08/20 07:23:10;;;;;;;7.68;4.43;;;23.50;73.70;;;;;;5074779;28;20045;-53
2021/08/20 07:25:36;;;;;;;11.57;4.35;;;23.50;72.70;;;;;;5079151;28;20112;-51
2021/08/20 07:28:02;;;;;;;10.52;4.93;;;23.50;72.20;;;;;;5079926;28;20039;-49
2021/08/20 07:30:27;;;;;;;9.35;4.70;;;23.60;72.30;;;;;;5081187;28;20040;-49
2021/08/20 07:32:53;;;;;;;10.07;4.70;;;23.70;72.20;;;;;;5035686;28;20147;-51
2021/08/20 07:35:19;;;;;;;9.73;4.57;;;23.90;72.50;;;;;;5083975;28;20036;-52
2021/08/20 07:37:45;;;;;;;9.55;4.57;;;24.20;74.60;;;;;;5032901;28;20032;-49
2021/08/20 07:40:10;;;;;;;9.88;4.30;;;24.30;71.30;;;;;;5051289;28;20128;-49
2021/08/20 07:42:36;;;;;;;7.22;3.78;;;24.50;70.20;;;;;;4990954;28;20480;-50
2021/08/20 07:45:02;;;;;;;5.90;3.53;;;24.60;71.20;;;;;;5062352;28;20040;-54
2021/08/20 07:47:28;;;;;;;9.05;3.47;;;24.70;70.50;;;;;;5078694;28;20087;-51
2021/08/20 07:49:53;;;;;;;8.30;3.65;;;24.70;69.90;;;;;;5058638;28;20124;-52
2021/08/20 07:52:19;;;;;;;9.68;3.65;;;24.70;69.80;;;;;;5052668;28;20051;-53
2021/08/20 07:54:45;;;;;;;8.48;4.15;;;25.00;69.40;;;;;;5054139;28;20168;-49
2021/08/20 07:57:11;;;;;;;15.68;4.03;;;25.20;69.50;;;;;;5046203;28;20034;-48
2021/08/20 07:59:36;;;;;;;13.65;4.20;;;25.60;68.60;;;;;;5057130;28;20087;-48
2021/08/20 08:02:02;;;;;;;6.75;3.65;;;25.60;67.00;;;;;;5040777;28;20044;-49
2021/08/20 08:04:28;;;;;;;9.73;4.38;;;25.60;67.10;;;;;;5052719;28;20033;-49
2021/08/20 08:06:54;;;;;;;8.20;4.47;;;25.60;67.10;;;;;;5028292;28;20429;-47
2021/08/20 08:09:20;;;;;;;16.83;4.95;;;;;;;;;;5030184;28;20361;-53
2021/08/20 08:11:46;;;;;;;14.13;4.45;;;26.00;65.40;;;;;;5030076;28;20034;-48
2021/08/20 08:14:11;;;;;;;10.98;4.70;;;26.00;65.90;;;;;;5036465;28;20148;-50
2021/08/20 08:16:39;;;;;;;10.82;4.13;;;26.30;66.30;;;;;;5048316;28;20041;-49
2021/08/20 08:19:06;;;;;;;12.45;5.10;;;26.60;65.50;;;;;;5018993;28;20029;-52
2021/08/20 08:21:33;;;;;;;11.40;6.13;;;27.00;64.70;;;;;;5011271;28;20030;-53
2021/08/20 08:24:00;;;;;;;11.38;6.40;;;;;;;;;;5017237;28;20061;-49
2021/08/20 08:26:25;;;;;;;11.95;7.25;;;27.40;62.50;;;;;;5017851;28;20095;-51
2021/08/20 08:28:53;;;;;;;10.07;4.72;;;27.60;61.20;;;;;;5028663;28;20033;-52
2021/08/20 08:31:20;;;;;;;9.10;3.65;;;27.50;61.30;;;;;;5028150;28;20030;-48
2021/08/20 08:33:46;;;;;;;8.07;3.53;;;27.70;60.60;;;;;;5018215;28;20109;-51
2021/08/20 08:36:12;;;;;;;10.30;3.35;;;28.00;61.30;;;;;;4996785;28;20524;-50
2021/08/20 08:38:38;;;;;;;8.82;3.05;;;27.90;60.80;;;;;;5011028;28;20065;-50
2021/08/20 08:41:03;;;;;;;5.05;2.78;;;28.20;59.90;;;;;;5019030;28;20116;-49
2021/08/20 08:43:30;;;;;;;6.50;3.10;;;28.50;61.00;;;;;;5044228;28;20484;-54
2021/08/20 08:46:00;;;;;;;6.30;2.33;;;28.80;59.90;;;;;;5023261;28;20652;-49
2021/08/20 08:48:26;;;;;;;6.15;2.30;;;28.80;57.40;;;;;;5019157;28;20033;-50
2021/08/20 08:50:53;;;;;;;4.60;2.55;;;28.70;57.60;;;;;;5032833;28;20064;-52
2021/08/20 08:53:19;;;;;;;5.25;2.05;;;29.00;57.60;;;;;;5044158;28;20211;-53
2021/08/20 08:55:49;;;;;;;6.63;2.53;;;29.10;56.70;;;;;;5027396;28;20493;-49
2021/08/20 08:58:15;;;;;;;5.85;2.28;;;29.10;57.20;;;;;;5032892;28;20064;-53
2021/08/20 09:00:41;;;;;;;5.70;2.05;;;29.50;56.90;;;;;;5015614;28;20033;-52
2021/08/20 09:03:20;;;;;;;5.18;2.60;;;29.50;55.10;;;;;;4992921;28;20042;-52
2021/08/20 09:05:46;;;;;;;5.47;1.90;;;29.80;57.00;;;;;;5027593;28;20042;-54
2021/08/20 09:19:29;;;;;;;3.97;2.30;;;29.80;55.10;;;;;;5046171;28;20875;-52
2021/08/20 09:22:07;;;;;;;3.55;1.92;;;30.60;53.60;;;;;;5030490;28;20029;-51
2021/08/20 09:24:42;;;;;;;5.97;2.17;;;30.10;52.90;;;;;;5037726;28;20116;-52
2021/08/20 09:27:14;;;;;;;3.53;1.85;;;30.10;52.60;;;;;;5036537;28;20498;-51
2021/08/20 09:30:10;;;;;;;;;;;30.60;53.30;;;;;;5046866;28;20056;-50
2021/08/20 09:32:45;;;;;;;3.05;1.90;;;30.70;52.40;;;;;;4976176;28;19910;-50
2021/08/20 09:35:11;;;;;;;4.40;2.17;;;;;;;;;;4958684;28;20548;-50
2021/08/20 09:37:38;;;;;;;3.25;1.70;;;31.30;50.60;;;;;;4942106;28;20461;-50
2021/08/20 09:40:11;;;;;;;3.55;1.90;;;31.40;51.50;;;;;;4971339;28;20031;-52
2021/08/20 09:42:38;;;;;;;4.05;1.88;;;30.50;51.10;;;;;;4951595;28;20585;-51
2021/08/20 09:45:30;;;;;;;6.22;1.73;;;30.00;51.70;;;;;;4976135;28;20027;-52
2021/08/20 09:47:55;;;;;;;;;;;30.70;52.40;;;;;;4970606;28;20407;-49
2021/08/20 09:50:38;;;;;;;4.05;1.80;;;30.90;51.30;;;;;;4977188;28;19912;-49
2021/08/20 09:53:16;;;;;;;2.70;1.75;;;30.90;51.10;;;;;;4976528;28;20043;-49
2021/08/20 09:55:43;;;;;;;5.72;1.90;;;30.60;50.90;;;;;;4936257;28;20133;-49
2021/08/20 09:58:11;;;;;;;2.13;1.50;;;30.90;53.20;;;;;;4936833;28;20399;-50
2021/08/20 10:00:38;;;;;;;3.47;1.70;;;30.80;50.10;;;;;;4977016;28;20446;-53
2021/08/20 10:03:08;;;;;;;3.58;1.90;;;30.20;70.00;;;;;;4975881;28;20043;-51
2021/08/20 10:05:35;;;;;;;2.08;1.65;;;30.10;52.10;;;;;;4952359;28;20098;-50
2021/08/20 10:08:01;;;;;;;4.15;1.60;;;30.40;52.30;;;;;;4976078;28;20054;-49
2021/08/20 10:10:29;;;;;;;3.05;1.70;;;30.80;52.10;;;;;;5044188;28;20064;-48
2021/08/20 10:12:55;;;;;;;4.82;2.03;;;;;;;;;;5040540;28;20018;-51
2021/08/20 10:15:21;;;;;;;4.10;1.90;;;31.70;82.20;;;;;;5042588;28;20063;-51
2021/08/20 10:17:47;;;;;;;2.15;1.45;;;;;;;;;;5050068;28;20553;-48
2021/08/20 10:20:15;;;;;;;2.53;1.65;;;32.10;85.20;;;;;;5023024;28;20068;-51
2021/08/20 10:22:41;;;;;;;4.43;2.13;;;31.80;49.80;;;;;;5031079;28;20026;-49
2021/08/20 10:25:09;;;;;;;3.90;2.20;;;;;;;;;;5025990;28;20104;-49
2021/08/20 10:27:36;;;;;;;4.53;2.20;;;;;;;;;;4999875;28;20053;-52
2021/08/20 10:30:02;;;;;;;3.97;1.48;;;;;;;;;;5023513;28;20424;-50
2021/08/20 10:32:28;;;;;;;3.75;1.80;;;;;;;;;;5026516;28;20037;-51
2021/08/20 10:34:54;;;;;;;2.45;1.80;;;;;;;;;;5027390;28;20030;-52
2021/08/20 10:37:23;;;;;;;3.75;1.90;;;;;;;;;;4994250;28;20038;-51
2021/08/20 10:39:51;;;;;;;3.40;1.95;;;32.20;82.60;;;;;;5028272;28;20044;-49
2021/08/20 10:42:22;;;;;;;4.57;2.10;;;31.70;76.20;;;;;;5025571;28;20026;-48
2021/08/20 10:44:51;;;;;;;3.10;1.65;;;31.80;75.10;;;;;;5030930;28;20030;-51
2021/08/20 10:47:25;;;;;;;5.15;2.53;;;32.00;73.80;;;;;;5025752;28;20370;-51
2021/08/20 10:49:52;;;;;;;1.90;1.65;;;;;;;;;;5005584;28;20069;-52
2021/08/20 10:52:26;;;;;;;4.60;1.90;;;;;;;;;;5020256;28;20042;-49
2021/08/20 10:54:55;;;;;;;4.10;1.88;;;;;;;;;;5027689;28;20476;-51
2021/08/20 10:57:39;;;;;;;5.15;1.75;;;;;;;;;;5027032;28;20107;-53
2021/08/20 11:00:06;;;;;;;2.28;1.70;;;32.70;47.30;;;;;;5019227;28;20033;-49
2021/08/20 11:02:46;;;;;;;3.00;1.67;;;32.60;47.80;;;;;;5000848;28;20038;-52
2021/08/20 11:05:14;;;;;;;2.40;1.58;;;32.90;48.20;;;;;;5026853;28;20083;-53
2021/08/20 11:07:43;;;;;;;3.83;1.52;;;32.40;48.20;;;;;;5028356;28;20049;-47
2021/08/20 11:10:08;;;;;;;2.67;2.15;;;32.00;47.70;;;;;;5031760;28;20063;-53
2021/08/20 11:12:42;;;;;;;4.18;2.15;;;31.90;48.20;;;;;;5018107;28;20061;-50
2021/08/20 11:15:23;;;;;;;2.63;2.10;;;32.30;48.00;;;;;;5022060;28;20033;-52
2021/08/20 11:17:51;;;;;;;3.67;1.90;;;31.90;47.60;;;;;;5022408;28;21010;-51
2021/08/20 11:20:38;;;;;;;3.00;2.00;;;32.40;48.40;;;;;;5024787;28;20030;-48
2021/08/20 11:23:11;;;;;;;2.30;1.50;;;;;;;;;;5019153;28;20041;-52
2021/08/20 11:25:40;;;;;;;3.50;1.90;;;33.10;46.80;;;;;;5024514;28;20369;-48
2021/08/20 11:28:08;;;;;;;4.72;2.30;;;;;;;;;;5019733;28;20073;-51
2021/08/20 11:30:40;;;;;;;4.00;2.00;;;33.70;47.70;;;;;;5018223;28;20036;-52
2021/08/20 11:33:20;;;;;;;3.03;1.88;;;;;;;;;;5013986;28;20083;-50
2021/08/20 11:35:48;;;;;;;4.47;1.85;;;33.90;47.50;;;;;;5007318;28;20034;-52
2021/08/20 11:38:39;;;;;;;3.58;1.85;;;33.80;47.00;;;;;;5012007;28;20025;-48
2021/08/20 11:41:24;;;;;;;4.22;1.95;;;34.10;47.00;;;;;;5020304;28;20432;-56
2021/08/20 11:43:57;;;;;;;3.17;2.13;;;34.00;47.20;;;;;;4998430;28;20091;-52
2021/08/20 11:46:25;;;;;;;7.10;2.08;;;;;;;;;;5022134;28;20373;-49
2021/08/20 11:48:53;;;;;;;3.15;1.70;;;;;;;;;;5009082;28;20068;-51
2021/08/20 11:51:33;;;;;;;3.50;1.98;;;;;;;;;;5017168;28;20373;-51
2021/08/20 11:54:04;;;;;;;2.75;2.00;;;34.30;47.30;;;;;;5010646;28;20096;-50
2021/08/20 11:56:30;;;;;;;;;;;34.70;47.90;;;;;;4997951;28;20037;-50
2021/08/20 11:58:56;;;;;;;2.83;2.05;;;34.30;47.50;;;;;;5014869;28;20379;-56
2021/08/20 12:01:32;;;;;;;3.15;2.25;;;33.70;47.50;;;;;;4995214;28;20037;-50
2021/08/20 12:04:00;;;;;;;2.85;1.90;;;34.10;48.80;;;;;;4934212;29;20048;-50
2021/08/20 12:06:28;;;;;;;4.95;2.25;;;34.20;47.40;;;;;;4886534;29;20035;-49
2021/08/20 12:08:57;;;;;;;2.70;2.10;;;33.70;48.10;;;;;;4933754;29;20055;-50
2021/08/20 12:11:25;;;;;;;4.10;2.35;;;33.20;47.60;;;;;;4944722;29;20043;-52
2021/08/20 12:13:54;;;;;;;4.03;2.30;;;33.10;48.10;;;;;;4951623;29;20071;-52
2021/08/20 12:16:46;;;;;;;6.43;2.17;;;33.20;48.10;;;;;;4885836;29;20039;-53
2021/08/20 12:19:47;;;;;;;4.72;2.33;;;33.20;49.50;;;;;;4934716;29;20075;-54
2021/08/20 12:22:15;;;;;;;;;;;33.40;47.80;;;;;;4934933;29;20095;-52
2021/08/20 12:24:48;;;;;;;4.72;2.08;;;33.70;48.30;;;;;;4934620;29;19910;-52
2021/08/20 12:27:18;;;;;;;6.43;2.38;;;33.50;48.10;;;;;;4934397;29;20055;-52
2021/08/20 12:30:07;;;;;;;3.55;2.42;;;33.80;48.60;;;;;;4918489;29;20126;-52
2021/08/20 12:32:35;;;;;;;3.95;1.98;;;34.30;48.30;;;;;;4929708;29;20039;-52
2021/08/20 12:35:04;;;;;;;2.75;2.15;;;;;;;;;;4975576;28;20042;-52
2021/08/20 12:37:32;;;;;;;1.83;1.60;;;34.70;85.60;;;;;;4992383;28;20038;-52
2021/08/20 12:40:05;;;;;;;3.17;2.00;;;;;;;;;;4992458;28;20034;-52
2021/08/20 12:42:31;;;;;;;4.25;2.30;;;34.80;46.40;;;;;;4992003;28;20042;-53
2021/08/20 12:45:20;;;;;;;5.35;2.10;;;34.30;46.20;;;;;;4991990;28;20042;-52
2021/08/20 12:47:59;;;;;;;4.85;2.03;;;34.80;46.60;;;;;;4959509;28;20050;-53
2021/08/20 12:50:25;;;;;;;5.20;2.42;;;34.60;46.00;;;;;;4992220;28;20117;-52
2021/08/20 12:53:03;;;;;;;5.68;2.15;;;34.70;45.70;;;;;;4959535;28;20034;-52
2021/08/20 12:55:37;;;;;;;3.85;2.35;;;34.30;46.90;;;;;;4991866;28;20039;-52
2021/08/20 12:58:04;;;;;;;7.43;2.42;;;34.40;46.10;;;;;;4991712;28;20034;-53
2021/08/20 13:00:33;;;;;;;4.82;2.20;;;34.40;46.70;;;;;;4975179;28;20030;-53
2021/08/20 13:03:00;;;;;;;4.35;2.28;;;34.30;46.30;;;;;;4992009;28;20058;-53
2021/08/20 13:05:26;;;;;;;6.68;2.55;;;34.20;46.20;;;;;;4959324;28;20034;-53
2021/08/20 13:07:52;;;;;;;3.17;1.95;;;34.50;46.00;;;;;;4991622;28;20065;-52
2021/08/20 13:10:17;;;;;;;4.53;2.30;;;34.30;45.80;;;;;;4992014;28;20414;-52
2021/08/20 13:12:44;;;;;;;4.82;2.10;;;33.90;46.30;;;;;;4991735;28;20029;-53
2021/08/20 13:15:11;;;;;;;6.60;2.47;;;34.30;46.70;;;;;;4960196;28;20073;-53
2021/08/20 13:17:40;;;;;;;5.43;2.10;;;34.50;47.20;;;;;;4993761;28;20082;-52
2021/08/20 13:20:06;;;;;;;4.47;2.15;;;34.80;46.90;;;;;;4993904;28;20030;-52
2021/08/20 13:22:34;;;;;;;5.05;2.20;;;34.70;47.40;;;;;;4994223;28;20389;-53
2021/08/20 13:25:00;;;;;;;3.83;2.10;;;;;;;;;;4993898;28;20482;-53
2021/08/20 13:27:26;;;;;;;4.80;1.98;;;35.00;46.40;;;;;;4993637;28;20049;-53